Llanbrynmair, United Kingdom
Current Conditions -  °F | °C
As of 2:50 AM on Sunday 23 Nov 2014 (Local Time) from EGOS Reporting Station
Rain Showers Rain Showers  
Wind Chill: 44°   Ceiling: 4400
Heat Index: 46°   Visibility: 6mi
Dew Point: 45°   Wind: 6mph
Humidity: 93%   Direction: 270°W
Pressure: 30"   Gusts: NA
Location:  52.61°N, 3.63°W
Report Text: EGOS 230250Z AUTO 27005KT 9999 -SHRA BKN044/// 08/07 Q1016
Loading
Personal Weather Stations






























Interactive Weather Map New forecast layout! Learn more

10-Day Weather Forecast

Advertisements
Track Severe Weather on mobile